Time;durP1;ratioP1;P1;durP2;ratioP2;P2;SDS_P1;SDS_P2;PMS_P1;PMS_P2;Temp;Humidity;BMP_temperature;BMP_pressure;BME280_temperature;BME280_humidity;BME280_pressure;Samples;Min_cycle;Max_cycle;Signal;HPM_P1;HPM_P2
2021/03/09 00:00:35;;;;;;;8.75;7.28;;;;;;;29.69;43.13;101298.34;5053033;28;69333;-31
2021/03/09 00:03:05;;;;;;;7.82;7.13;;;;;;;29.69;43.87;101295.63;5056236;28;69294;-29
2021/03/09 00:05:36;;;;;;;9.65;7.00;;;;;;;29.76;43.80;101307.31;5041309;28;65187;-28
2021/03/09 00:08:06;;;;;;;9.10;7.07;;;;;;;29.74;43.26;101297.75;5056282;28;70429;-30
2021/03/09 00:10:36;;;;;;;11.13;7.63;;;;;;;29.81;44.30;101304.84;5052887;28;66099;-28
2021/03/09 00:13:06;;;;;;;7.88;7.13;;;;;;;29.79;44.12;101306.91;5047961;28;69866;-30
2021/03/09 00:15:35;;;;;;;8.85;7.35;;;;;;;29.82;44.51;101317.31;5041646;28;65992;-31
2021/03/09 00:18:08;;;;;;;9.23;7.13;;;;;;;29.76;45.48;101311.91;5047313;28;69432;-31
2021/03/09 00:20:38;;;;;;;16.67;8.27;;;;;;;29.78;47.45;101310.66;5052573;28;66006;-30
2021/03/09 00:23:08;;;;;;;12.18;9.50;;;;;;;29.95;48.15;101321.09;5050715;28;69994;-30
2021/03/09 00:25:38;;;;;;;31.10;10.10;;;;;;;30.01;49.21;101331.13;5054014;28;66058;-31
2021/03/09 00:28:07;;;;;;;16.77;9.27;;;;;;;29.98;50.47;101326.13;5044085;28;69093;-30
2021/03/09 00:30:37;;;;;;;17.90;10.13;;;;;;;30.01;49.67;101341.94;5053480;28;65453;-29
2021/03/09 00:33:07;;;;;;;17.05;10.15;;;;;;;30.06;51.05;101334.88;5055953;28;69808;-29
2021/03/09 00:35:38;;;;;;;17.52;9.90;;;;;;;30.09;51.16;101340.91;5051702;28;66692;-31
2021/03/09 00:38:08;;;;;;;35.08;11.65;;;;;;;30.14;51.91;101347.38;5068065;28;70018;-30
2021/03/09 00:40:38;;;;;;;17.83;10.80;;;;;;;30.17;51.21;101340.72;5047659;28;67348;-31
2021/03/09 00:43:08;;;;;;;25.85;11.43;;;;;;;30.24;52.74;101357.84;5048997;28;70167;-32
2021/03/09 00:45:39;;;;;;;25.33;10.63;;;;;;;30.34;52.03;101349.31;5050715;28;67130;-31
2021/03/09 00:48:09;;;;;;;24.60;11.13;;;;;;;30.35;51.44;101353.69;5054124;28;70365;-31
2021/03/09 00:50:38;;;;;;;27.05;11.55;;;;;;;30.33;51.64;101355.78;5049781;28;66388;-30
2021/03/09 00:53:08;;;;;;;24.83;11.40;;;;;;;30.44;51.48;101366.00;5053774;28;70013;-31
2021/03/09 00:55:38;;;;;;;18.70;12.10;;;;;;;30.42;51.77;101365.34;5053979;28;66146;-31
2021/03/09 00:58:08;;;;;;;26.10;12.00;;;;;;;30.48;52.09;101375.38;5055715;28;70318;-32
2021/03/09 01:00:38;;;;;;;23.73;12.48;;;;;;;30.48;51.72;101387.03;5050216;28;66015;-35
2021/03/09 01:03:08;;;;;;;23.75;13.05;;;;;;;30.51;52.37;101391.22;5052696;28;70346;-31
2021/03/09 01:05:38;;;;;;;26.08;13.07;;;;;;;30.48;52.12;101384.34;5057294;28;66134;-32
2021/03/09 01:08:08;;;;;;;26.20;14.55;;;;;;;30.55;52.23;101395.16;5052236;28;70300;-31
2021/03/09 01:10:39;;;;;;;21.83;13.98;;;;;;;30.58;51.78;101396.63;5054563;28;65414;-29
2021/03/09 01:13:13;;;;;;;22.92;13.43;;;;;;;30.59;52.69;101393.72;5052876;28;69984;-32
2021/03/09 01:15:43;;;;;;;19.80;13.57;;;;;;;30.59;52.14;101404.56;5039933;28;65095;-30
2021/03/09 01:18:20;;;;;;;24.88;15.25;;;;;;;30.58;52.85;101402.88;5046962;28;69982;-31
2021/03/09 01:20:50;;;;;;;35.45;14.73;;;;;;;30.64;52.07;101406.63;5058518;28;66081;-30
2021/03/09 01:23:20;;;;;;;25.10;16.13;;;;;;;30.65;52.45;101406.44;5043650;28;70263;-31
2021/03/09 01:25:50;;;;;;;26.80;16.40;;;;;;;30.66;52.23;101401.84;5046920;28;65932;-34
2021/03/09 01:28:20;;;;;;;30.55;17.48;;;;;;;30.66;51.83;101416.22;5047901;28;70026;-31
2021/03/09 01:30:50;;;;;;;23.15;16.35;;;;;;;30.64;52.39;101407.47;5054643;28;66028;-35
2021/03/09 01:33:20;;;;;;;28.42;18.67;;;;;;;30.75;52.09;101418.72;5047372;28;70430;-32
2021/03/09 01:35:50;;;;;;;29.88;18.98;;;;;;;30.75;51.76;101416.03;5048663;28;65995;-31
2021/03/09 01:38:21;;;;;;;31.30;18.70;;;;;;;30.78;51.32;101418.31;5047880;28;69158;-32
2021/03/09 01:40:52;;;;;;;35.75;19.33;;;;;;;30.79;51.33;101418.13;5039285;28;65642;-31
2021/03/09 01:43:25;;;;;;;37.60;19.77;;;;;;;30.82;51.25;101425.03;5051973;28;70836;-31
2021/03/09 01:45:55;;;;;;;32.97;21.05;;;;;;;30.83;51.56;101421.28;5026267;28;66053;-31
2021/03/09 01:48:46;;;;;;;38.75;22.25;;;;;;;30.71;51.81;101408.31;5037686;28;70485;-31
2021/03/09 01:51:20;;;;;;;41.65;22.60;;;;;;;30.71;51.36;101402.91;5046245;28;65835;-31
2021/03/09 01:53:51;;;;;;;37.78;23.75;;;;;;;30.86;51.03;101420.84;5050714;28;69206;-30
2021/03/09 01:56:22;;;;;;;51.10;24.90;;;;;;;30.86;51.15;101420.84;5039627;28;65343;-32
2021/03/09 01:58:53;;;;;;;42.00;24.33;;;;;;;30.86;50.80;101421.69;5054340;28;69902;-31
2021/03/09 02:01:24;;;;;;;39.60;22.53;;;;;;;30.88;51.37;101425.03;5049813;28;65779;-30
2021/03/09 02:03:54;;;;;;;35.20;23.83;;;;;;;30.91;50.91;101429.19;5039392;28;69178;-31
2021/03/09 02:06:24;;;;;;;41.67;23.23;;;;;;;30.93;50.40;101429.84;5037453;28;66620;-31
2021/03/09 02:08:55;;;;;;;38.03;23.63;;;;;;;30.94;50.34;101434.19;5036946;28;70228;-31
2021/03/09 02:12:03;;;;;;;37.40;22.33;;;;;;;30.93;50.42;101425.25;5055430;27;64450;-32
2021/03/09 02:14:42;;;;;;;41.80;23.73;;;;;;;30.99;50.24;101429.00;5041865;28;69477;-34
2021/03/09 02:17:26;;;;;;;37.90;22.42;;;;;;;31.03;49.91;101432.13;5041383;28;67118;-30
2021/03/09 02:20:24;;;;;;;33.42;22.13;;;;;;;31.06;49.72;101427.09;5041045;28;70564;-32
2021/03/09 02:23:24;;;;;;;43.03;23.33;;;;;;;31.10;49.60;101428.38;5044358;28;66022;-38
2021/03/09 02:26:27;;;;;;;38.95;21.30;;;;;;;31.08;50.00;101422.31;5042813;28;69465;-30
2021/03/09 02:29:19;;;;;;;;;;;;;;;31.13;49.74;101427.94;5042864;28;65385;-32
2021/03/09 02:31:51;;;;;;;40.63;22.70;;;;;;;31.09;49.78;101415.88;5039898;28;69963;-29
2021/03/09 02:34:45;;;;;;;33.75;21.67;;;;;;;31.14;49.93;101421.47;5048633;28;66059;-31
2021/03/09 02:37:17;;;;;;;38.33;22.45;;;;;;;31.22;49.24;101431.28;5040981;28;69189;-32
2021/03/09 02:39:49;;;;;;;40.08;21.77;;;;;;;31.24;49.08;101425.66;5053479;28;66227;-33
2021/03/09 02:42:24;;;;;;;30.17;21.02;;;;;;;31.26;49.15;101423.53;5047100;28;68640;-34
2021/03/09 02:44:58;;;;;;;32.20;21.95;;;;;;;31.20;49.41;101403.53;5049867;28;66002;-31
2021/03/09 02:47:30;;;;;;;29.27;20.48;;;;;;;31.28;48.94;101410.63;5038668;28;70124;-31
2021/03/09 02:50:09;;;;;;;34.15;21.27;;;;;;;31.33;48.91;101414.38;5040702;28;66062;-31
2021/03/09 02:52:40;;;;;;;;;;;;;;;31.34;48.85;101417.91;5051629;28;69335;-31
2021/03/09 02:55:12;;;;;;;30.17;20.55;;;;;;;31.39;48.83;101410.00;5041261;28;66001;-31
2021/03/09 02:57:44;;;;;;;35.00;20.73;;;;;;;31.37;48.57;101402.09;5043788;28;70020;-30
2021/03/09 03:00:15;;;;;;;39.28;20.40;;;;;;;31.43;48.40;101405.84;5049704;28;66118;-31
2021/03/09 03:02:46;;;;;;;32.60;19.63;;;;;;;31.46;48.72;101410.84;5054162;28;70502;-31
2021/03/09 03:05:18;;;;;;;;;;;;;;;31.46;48.80;101410.03;5060438;28;66150;-31
2021/03/09 03:07:51;;;;;;;31.92;20.35;;;;;;;31.57;48.50;101404.78;5055469;28;70632;-30
2021/03/09 03:10:22;;;;;;;30.73;21.10;;;;;;;31.59;48.08;101405.41;5048992;28;65434;-32
2021/03/09 03:12:52;;;;;;;25.52;19.80;;;;;;;31.60;48.07;101417.06;5042351;28;70295;-31
2021/03/09 03:15:22;;;;;;;29.88;20.15;;;;;;;31.59;48.38;101399.97;5048181;28;65902;-31
2021/03/09 03:17:52;;;;;;;29.35;20.55;;;;;;;31.64;48.00;101401.19;5055273;28;70176;-32
2021/03/09 03:20:25;;;;;;;32.10;20.48;;;;;;;31.67;48.57;101404.31;5056066;28;65775;-31
2021/03/09 03:22:56;;;;;;;37.25;20.67;;;;;;;31.57;48.49;101374.94;5056887;28;69323;-31
2021/03/09 03:25:26;;;;;;;32.15;19.65;;;;;;;31.73;48.09;101399.91;5069526;28;66607;-31
2021/03/09 03:27:58;;;;;;;22.83;18.95;;;;;;;31.76;48.58;101399.47;5055285;28;68579;-30
2021/03/09 03:30:28;;;;;;;28.83;19.80;;;;;;;31.77;48.41;101390.31;5054610;28;67017;-31
2021/03/09 03:32:58;;;;;;;30.92;20.48;;;;;;;31.80;47.86;101390.72;5055702;28;69460;-32
2021/03/09 03:35:28;;;;;;;31.33;20.08;;;;;;;31.86;47.90;101389.03;5056792;28;65877;-31
2021/03/09 03:37:58;;;;;;;32.03;19.45;;;;;;;31.89;48.33;101382.34;5053855;28;69233;-32
2021/03/09 03:40:28;;;;;;;27.92;19.70;;;;;;;31.91;48.17;101380.25;5055609;28;66300;-32
2021/03/09 03:42:58;;;;;;;27.92;19.52;;;;;;;31.93;48.25;101379.00;5057343;28;69060;-30
2021/03/09 03:45:28;;;;;;;29.88;19.48;;;;;;;31.96;48.20;101367.72;5053674;28;65869;-32
2021/03/09 03:47:59;;;;;;;28.65;18.73;;;;;;;31.99;47.67;101361.88;5037939;28;70161;-31
2021/03/09 03:50:31;;;;;;;27.13;19.07;;;;;;;31.94;48.08;101348.13;5053802;28;66127;-30
2021/03/09 03:53:10;;;;;;;29.77;19.17;;;;;;;31.94;48.17;101342.69;5070646;28;69781;-30
2021/03/09 03:56:14;;;;;;;27.90;19.92;;;;;;;32.05;47.84;101352.03;5052960;28;65911;-31
2021/03/09 03:59:05;;;;;;;26.48;19.00;;;;;;;32.09;47.29;101345.09;5055915;28;70588;-34
2021/03/09 04:01:36;;;;;;;28.00;17.92;;;;;;;32.10;47.81;101329.66;5044132;28;65315;-32
2021/03/09 04:04:12;;;;;;;28.50;19.33;;;;;;;32.10;47.69;101324.25;5057036;28;70093;-32
2021/03/09 04:06:46;;;;;;;25.13;19.00;;;;;;;32.16;47.59;101340.47;5049338;28;66014;-31
2021/03/09 04:09:17;;;;;;;25.20;18.00;;;;;;;32.16;47.44;101323.38;5047430;28;70136;-32
2021/03/09 04:11:48;;;;;;;31.73;19.80;;;;;;;32.10;47.30;101299.81;5044346;28;65239;-31
2021/03/09 04:14:18;;;;;;;22.88;18.95;;;;;;;32.20;47.35;101314.53;5065211;28;68757;-32
2021/03/09 04:16:52;;;;;;;29.80;19.70;;;;;;;32.24;47.11;101310.34;5053109;28;66200;-32
2021/03/09 04:19:26;;;;;;;30.50;18.42;;;;;;;32.24;46.91;101299.50;5049898;28;70447;-31
2021/03/09 04:22:01;;;;;;;23.33;18.00;;;;;;;32.27;46.93;101288.19;5044884;28;65327;-31
2021/03/09 04:24:33;;;;;;;27.88;18.85;;;;;;;32.33;46.83;101291.91;5043052;28;70273;-32
2021/03/09 04:27:04;;;;;;;30.88;19.88;;;;;;;32.35;47.11;101287.09;5051038;28;65914;-30
2021/03/09 04:29:35;;;;;;;25.55;19.05;;;;;;;32.33;47.15;101270.19;5054390;28;70527;-36
2021/03/09 04:32:07;;;;;;;27.45;18.38;;;;;;;32.39;46.90;101274.72;5046792;28;65940;-31
2021/03/09 04:34:38;;;;;;;23.80;18.83;;;;;;;32.38;47.08;101273.09;5049415;28;69994;-30
2021/03/09 04:37:12;;;;;;;30.95;18.88;;;;;;;32.42;46.93;101268.03;5053919;28;65027;-30
2021/03/09 04:39:45;;;;;;;32.20;19.02;;;;;;;32.41;46.74;101267.22;5059096;28;69548;-31
2021/03/09 04:42:19;;;;;;;24.08;17.83;;;;;;;32.42;47.18;101252.56;5038863;28;66126;-31
2021/03/09 04:44:50;;;;;;;34.75;19.10;;;;;;;32.44;46.42;101250.47;5038460;28;70440;-31
2021/03/09 04:47:20;;;;;;;22.53;17.87;;;;;;;32.49;46.48;101250.66;5042175;27;65226;-31
2021/03/09 04:49:55;;;;;;;25.55;19.05;;;;;;;32.53;46.47;101242.06;5038893;28;68772;-31
2021/03/09 04:52:26;;;;;;;27.27;19.20;;;;;;;32.36;46.38;101209.19;5046084;27;64193;-30
2021/03/09 04:54:57;;;;;;;32.40;18.88;;;;;;;32.45;46.38;101213.28;5038632;28;70058;-38
2021/03/09 04:57:55;;;;;;;26.08;17.67;;;;;;;32.49;46.21;101225.41;5041948;28;66474;-33
2021/03/09 05:00:26;;;;;;;27.00;18.83;;;;;;;32.60;46.63;101215.69;5044024;28;69905;-31
2021/03/09 05:02:55;;;;;;;37.75;19.08;;;;;;;32.59;45.91;101214.00;5051586;28;66129;-31
2021/03/09 05:05:26;;;;;;;26.30;18.35;;;;;;;32.61;46.20;101207.31;5049277;28;70634;-32
2021/03/09 05:07:59;;;;;;;32.85;17.95;;;;;;;32.67;46.05;101200.16;5053330;28;65066;-32
2021/03/09 05:10:30;;;;;;;20.48;18.02;;;;;;;32.67;46.05;101200.16;5046038;28;70556;-31
2021/03/09 05:13:01;;;;;;;;;;;;;;;32.63;46.13;101186.19;5050988;28;64995;-31
2021/03/09 05:15:32;;;;;;;21.15;16.77;;;;;;;32.71;45.93;101176.94;5049701;28;69666;-31
2021/03/09 05:18:04;;;;;;;20.50;17.35;;;;;;;32.72;46.10;101173.97;5048151;28;66173;-31
2021/03/09 05:20:36;;;;;;;20.33;17.03;;;;;;;32.74;45.97;101168.31;5041871;28;69322;-34
2021/03/09 05:23:08;;;;;;;26.60;17.00;;;;;;;32.75;46.20;101175.41;5039452;28;66946;-32
2021/03/09 05:25:39;;;;;;;19.55;16.48;;;;;;;32.75;45.73;101164.53;5050373;28;69866;-32
2021/03/09 05:28:10;;;;;;;22.80;18.13;;;;;;;32.75;45.48;101156.38;5049697;28;65805;-31
2021/03/09 05:30:42;;;;;;;23.27;17.23;;;;;;;32.77;45.76;101157.00;5051298;28;69766;-31
2021/03/09 05:33:13;;;;;;;19.20;17.00;;;;;;;32.80;45.69;101151.09;5050647;28;66161;-32
2021/03/09 05:35:44;;;;;;;21.57;17.47;;;;;;;32.76;45.66;101133.59;5056264;28;69479;-31
2021/03/09 05:38:16;;;;;;;18.47;16.70;;;;;;;32.85;45.50;101134.97;5047071;28;66252;-32
2021/03/09 05:40:47;;;;;;;22.07;16.73;;;;;;;32.86;45.49;101127.63;5055503;28;70090;-30
2021/03/09 05:43:18;;;;;;;24.03;16.87;;;;;;;32.86;45.41;101123.03;5059582;27;64393;-31
2021/03/09 05:45:49;;;;;;;19.42;16.92;;;;;;;32.89;45.48;101113.59;5047691;28;69994;-30
2021/03/09 05:48:21;;;;;;;21.55;16.75;;;;;;;32.91;45.43;101109.59;5048993;28;66617;-31
2021/03/09 05:50:55;;;;;;;18.42;16.60;;;;;;;32.92;45.48;101111.22;5046567;28;70884;-31
2021/03/09 05:53:26;;;;;;;19.45;16.42;;;;;;;32.94;45.05;101100.97;5046650;28;65564;-32
2021/03/09 05:55:57;;;;;;;20.52;16.70;;;;;;;32.99;44.92;101094.00;5066425;27;70020;-31
2021/03/09 05:58:29;;;;;;;20.98;16.65;;;;;;;33.00;45.36;101095.72;5046511;28;66023;-33
2021/03/09 06:01:00;;;;;;;24.58;16.58;;;;;;;33.04;45.06;101086.03;5056271;28;69982;-31
2021/03/09 06:03:32;;;;;;;20.73;16.10;;;;;;;33.04;45.23;101086.03;5050645;28;65471;-35
2021/03/09 06:06:03;;;;;;;17.30;15.80;;;;;;;33.06;44.84;101083.91;5050564;28;70326;-31
2021/03/09 06:08:34;;;;;;;19.17;16.08;;;;;;;33.09;45.21;101072.59;5052922;28;65567;-32
2021/03/09 06:11:31;;;;;;;18.13;16.23;;;;;;;33.08;44.86;101054.63;5044610;28;69680;-31
2021/03/09 06:14:14;;;;;;;17.73;15.82;;;;;;;33.17;44.89;101060.56;5048605;28;66131;-30
2021/03/09 06:16:45;;;;;;;20.48;16.33;;;;;;;33.19;45.06;101056.56;5071291;27;69992;-31
2021/03/09 06:19:17;;;;;;;18.92;16.48;;;;;;;33.18;44.66;101049.44;5048369;28;65402;-30
2021/03/09 06:22:06;;;;;;;20.05;16.88;;;;;;;33.22;45.00;101055.25;5047057;28;70122;-30
2021/03/09 06:24:37;;;;;;;17.70;15.80;;;;;;;33.25;44.38;101039.31;5052593;28;65986;-31
2021/03/09 06:27:26;;;;;;;22.17;15.95;;;;;;;33.20;44.81;101035.63;5049431;28;70230;-31
2021/03/09 06:29:57;;;;;;;17.13;15.18;;;;;;;33.25;44.74;101036.59;5055697;28;66399;-31
2021/03/09 06:32:40;;;;;;;17.13;15.05;;;;;;;33.27;44.89;101025.50;5049628;28;69149;-31
2021/03/09 06:35:36;;;;;;;17.83;15.95;;;;;;;33.22;44.67;101018.03;5052212;28;66152;-30
2021/03/09 06:38:17;;;;;;;17.38;15.68;;;;;;;33.25;44.81;101003.97;5042856;28;70012;-30
2021/03/09 06:41:17;;;;;;;17.30;15.43;;;;;;;33.27;44.68;101003.75;5053832;28;65870;-31
2021/03/09 06:44:02;;;;;;;18.38;15.90;;;;;;;33.21;44.87;100988.34;5049978;28;68618;-31
2021/03/09 06:46:46;;;;;;;17.52;15.80;;;;;;;33.29;44.62;100996.16;5050625;28;66552;-30
2021/03/09 06:49:16;;;;;;;19.42;16.10;;;;;;;33.38;44.73;101003.75;5045232;28;69215;-30
2021/03/09 06:51:48;;;;;;;17.60;15.82;;;;;;;33.42;44.44;100992.41;5049727;28;66069;-31
2021/03/09 06:54:18;;;;;;;17.58;15.45;;;;;;;33.43;44.17;100985.88;5050168;28;69914;-31
2021/03/09 06:56:49;;;;;;;16.77;15.17;;;;;;;33.47;44.63;100985.19;5042119;28;65677;-31
2021/03/09 06:59:31;;;;;;;21.60;15.50;;;;;;;33.50;44.42;100965.69;5047064;28;69940;-31
2021/03/09 07:02:10;;;;;;;17.17;15.65;;;;;;;33.57;44.02;100971.03;5042014;28;65272;-33
2021/03/09 07:04:44;;;;;;;18.60;16.83;;;;;;;33.62;44.27;100963.00;5049898;28;70285;-30
2021/03/09 07:07:21;;;;;;;16.85;15.02;;;;;;;33.56;43.84;100936.75;5041723;28;66027;-30
2021/03/09 07:09:55;;;;;;;16.30;14.63;;;;;;;33.70;43.90;100943.59;5045960;28;69811;-31
2021/03/09 07:12:29;;;;;;;20.40;15.10;;;;;;;33.72;43.89;100941.47;5051334;28;66109;-30
2021/03/09 07:15:00;;;;;;;17.90;15.40;;;;;;;33.76;43.79;100939.91;5045760;28;69778;-31
2021/03/09 07:17:34;;;;;;;17.13;15.50;;;;;;;33.75;43.74;100930.09;5053495;28;65885;-30
2021/03/09 07:20:08;;;;;;;18.85;15.63;;;;;;;33.85;43.58;100934.09;5053233;28;69169;-32
2021/03/09 07:22:54;;;;;;;16.65;15.15;;;;;;;33.88;43.54;100928.19;5043063;28;65287;-32
2021/03/09 07:25:26;;;;;;;17.02;15.50;;;;;;;33.92;43.54;100913.84;5056038;28;70616;-30
2021/03/09 07:28:03;;;;;;;16.88;15.38;;;;;;;33.87;43.36;100896.59;5048958;28;66071;-32
2021/03/09 07:30:40;;;;;;;16.25;14.80;;;;;;;33.98;43.43;100899.28;5056927;28;69749;-31
2021/03/09 07:33:12;;;;;;;16.73;15.23;;;;;;;34.02;43.04;100891.47;5066114;27;66078;-32
2021/03/09 07:35:44;;;;;;;16.45;14.93;;;;;;;34.06;43.26;100892.66;5038644;28;70481;-31
2021/03/09 07:38:24;;;;;;;19.40;15.52;;;;;;;34.12;43.00;100891.69;5052368;28;65514;-32
2021/03/09 07:40:56;;;;;;;16.13;14.52;;;;;;;34.14;42.90;100888.75;5042584;28;70045;-32
2021/03/09 07:43:27;;;;;;;16.02;14.52;;;;;;;34.15;43.52;100880.31;5050935;28;65251;-32
2021/03/09 07:45:58;;;;;;;16.27;14.80;;;;;;;34.17;43.15;100885.53;5043026;28;69844;-31
2021/03/09 07:48:28;;;;;;;16.52;14.82;;;;;;;34.18;42.91;100874.38;5047690;28;65396;-32
2021/03/09 07:51:04;;;;;;;15.32;14.02;;;;;;;34.20;42.82;100871.44;5049930;28;70023;-36
2021/03/09 07:53:33;;;;;;;16.73;15.15;;;;;;;34.26;43.19;100867.72;5043860;28;66214;-32
2021/03/09 07:56:12;;;;;;;17.65;14.52;;;;;;;34.28;42.76;100857.44;5040647;28;71091;-32
2021/03/09 07:58:44;;;;;;;15.32;14.07;;;;;;;34.31;42.65;100845.22;5045063;28;65135;-32
2021/03/09 08:01:14;;;;;;;15.13;13.57;;;;;;;34.36;42.69;100848.88;5050970;28;71725;-32
2021/03/09 08:03:46;;;;;;;15.40;14.20;;;;;;;34.40;42.39;100846.47;5051225;28;66735;-31
2021/03/09 08:06:19;;;;;;;15.70;14.05;;;;;;;34.42;42.53;100836.16;5069647;27;70269;-32
2021/03/09 08:08:53;;;;;;;19.75;14.95;;;;;;;34.36;42.52;100821.63;5052852;28;65201;-32
2021/03/09 08:11:23;;;;;;;15.43;13.88;;;;;;;34.51;42.40;100828.41;5066409;28;68726;-31
2021/03/09 08:14:05;;;;;;;15.55;14.30;;;;;;;34.52;42.22;100817.28;5050192;28;66903;-32
2021/03/09 08:16:40;;;;;;;15.38;13.93;;;;;;;34.59;42.16;100814.41;5051664;28;69966;-31
2021/03/09 08:19:32;;;;;;;15.77;13.75;;;;;;;34.61;42.17;100821.28;5053146;28;65942;-31
2021/03/09 08:22:06;;;;;;;14.30;12.93;;;;;;;34.64;42.08;100823.50;5049798;28;69244;-31
2021/03/09 08:24:43;;;;;;;15.15;13.77;;;;;;;34.66;41.83;100813.19;5051346;28;65715;-31
2021/03/09 08:27:30;;;;;;;16.20;14.05;;;;;;;34.67;41.82;100817.56;5051155;28;70607;-30
2021/03/09 08:30:09;;;;;;;15.90;13.52;;;;;;;34.70;41.81;100816.22;5049589;28;65906;-31
2021/03/09 08:32:40;;;;;;;14.07;13.05;;;;;;;34.74;42.08;100822.00;5051280;28;70594;-31
2021/03/09 08:35:13;;;;;;;14.45;12.98;;;;;;;34.73;42.17;100815.72;5046480;28;65426;-33
2021/03/09 08:37:48;;;;;;;14.90;13.40;;;;;;;34.77;42.01;100807.88;5048856;28;69833;-31
2021/03/09 08:40:23;;;;;;;13.98;13.00;;;;;;;34.79;41.56;100811.19;5049930;28;66539;-31
2021/03/09 08:43:02;;;;;;;14.27;13.25;;;;;;;34.83;41.64;100809.63;5042746;28;70084;-31
2021/03/09 08:45:36;;;;;;;14.82;13.43;;;;;;;34.86;41.85;100804.50;5049683;28;66514;-31
2021/03/09 08:48:09;;;;;;;20.40;12.82;;;;;;;34.90;41.57;100800.19;5051125;28;69309;-33
2021/03/09 08:50:46;;;;;;;;;;;;;;;34.92;41.46;100797.22;5050945;28;66305;-37
2021/03/09 08:53:35;;;;;;;16.75;13.27;;;;;;;34.99;41.79;100800.59;5047919;28;68701;-32
2021/03/09 08:56:07;;;;;;;13.70;12.48;;;;;;;35.02;41.09;100796.53;5052061;28;66625;-34
2021/03/09 08:58:41;;;;;;;13.18;12.15;;;;;;;35.01;41.38;100809.34;5045467;28;70064;-31
2021/03/09 09:01:22;;;;;;;13.98;12.73;;;;;;;35.01;41.36;100811.25;5038938;28;65179;-32
2021/03/09 09:03:53;;;;;;;14.80;13.50;;;;;;;35.04;41.59;100814.28;5044532;28;69196;-33
2021/03/09 09:06:27;;;;;;;15.27;13.55;;;;;;;35.04;41.30;100814.28;5050977;28;66267;-32
2021/03/09 09:08:59;;;;;;;14.10;12.90;;;;;;;35.08;41.58;100829.13;5041558;28;70002;-34
2021/03/09 09:11:30;;;;;;;14.23;12.88;;;;;;;35.09;41.15;100824.47;5045473;28;65899;-30
2021/03/09 09:14:17;;;;;;;24.48;13.63;;;;;;;35.01;41.34;100817.53;5044741;28;69450;-32
2021/03/09 09:16:47;;;;;;;13.80;12.80;;;;;;;35.10;41.22;100831.56;5045943;28;66045;-31
2021/03/09 09:19:17;;;;;;;15.30;12.82;;;;;;;35.07;41.23;100823.91;5051247;28;69095;-32
2021/03/09 09:21:50;;;;;;;13.85;12.65;;;;;;;35.09;41.52;100832.66;5049352;28;67326;-31
2021/03/09 09:24:23;;;;;;;15.07;12.80;;;;;;;35.10;41.18;100837.88;5050521;28;69988;-32
2021/03/09 09:27:03;;;;;;;14.45;12.85;;;;;;;35.07;41.33;100838.34;5041545;28;65357;-31
2021/03/09 09:29:35;;;;;;;15.90;13.27;;;;;;;35.10;41.15;100837.88;5052415;28;70191;-32
2021/03/09 09:32:07;;;;;;;14.15;12.38;;;;;;;35.09;41.32;100851.75;5064602;27;66604;-31
2021/03/09 09:34:38;;;;;;;13.52;12.23;;;;;;;35.11;41.03;100855.88;5059140;28;69901;-31
2021/03/09 09:37:16;;;;;;;13.32;12.25;;;;;;;35.08;41.10;100855.56;5041827;28;65276;-32
2021/03/09 09:39:46;;;;;;;12.93;11.73;;;;;;;35.11;41.22;100864.06;5037532;28;69125;-31
2021/03/09 09:42:18;;;;;;;15.02;12.52;;;;;;;35.11;40.99;100861.31;5052634;28;65118;-31
2021/03/09 09:44:47;;;;;;;13.18;12.07;;;;;;;35.10;41.00;100869.75;5056298;28;70164;-30
2021/03/09 09:47:17;;;;;;;17.48;11.23;;;;;;;35.07;41.22;100870.25;5048529;28;64210;-30
2021/03/09 09:49:47;;;;;;;12.27;11.10;;;;;;;35.09;41.01;100874.38;5034942;28;70028;-31
2021/03/09 09:52:19;;;;;;;12.68;11.45;;;;;;;35.09;41.01;100865.38;5048018;28;65764;-30
2021/03/09 09:54:55;;;;;;;15.38;12.00;;;;;;;35.09;40.88;100879.84;5049235;28;69750;-31
2021/03/09 09:57:25;;;;;;;12.70;11.60;;;;;;;35.12;40.82;100887.50;5049638;28;65347;-33
2021/03/09 10:00:10;;;;;;;;;;;;;;;34.96;41.61;100884.75;5045991;28;69939;-31
2021/03/09 10:02:40;;;;;;;13.82;10.82;;;;;;;34.91;41.94;100893.69;5039623;28;66636;-36
2021/03/09 10:05:26;;;;;;;34.20;11.30;;;;;;;34.89;41.48;100898.56;5033490;28;69163;-33
2021/03/09 10:08:09;;;;;;;30.80;9.95;;;;;;;34.92;41.31;100900.78;5041545;28;67046;-33
2021/03/09 10:10:41;;;;;;;22.23;10.17;;;;;;;34.88;41.05;100899.63;5048013;28;69725;-35
2021/03/09 10:13:24;;;;;;;20.20;9.90;;;;;;;34.75;41.02;100894.50;5042865;28;66241;-34
2021/03/09 10:15:54;;;;;;;24.73;10.80;;;;;;;34.74;40.76;100901.03;5048736;28;70725;-33
2021/03/09 10:18:28;;;;;;;18.65;9.43;;;;;;;34.73;40.89;100907.56;5046868;28;67177;-34
2021/03/09 10:21:11;;;;;;;13.90;9.77;;;;;;;34.69;40.81;100918.94;5049535;28;69677;-32
2021/03/09 10:23:56;;;;;;;15.75;9.82;;;;;;;34.64;40.95;100915.31;5047653;28;66469;-38
2021/03/09 10:26:30;;;;;;;38.88;11.23;;;;;;;34.52;41.28;100896.28;5044038;28;70983;-33
2021/03/09 10:29:20;;;;;;;16.65;10.20;;;;;;;34.66;41.33;100930.34;5046458;28;65992;-33
2021/03/09 10:31:59;;;;;;;16.15;10.88;;;;;;;34.60;41.34;100925.03;5042537;28;69719;-33
2021/03/09 10:34:41;;;;;;;19.35;10.18;;;;;;;34.46;41.79;100911.69;5044804;28;66455;-33
2021/03/09 10:37:13;;;;;;;17.23;10.20;;;;;;;34.58;41.35;100930.75;5042677;28;69822;-33
2021/03/09 10:40:19;;;;;;;24.77;10.80;;;;;;;34.53;41.98;100936.06;5044192;28;65616;-35
2021/03/09 10:42:50;;;;;;;15.55;11.02;;;;;;;34.57;42.18;100930.97;5039495;28;70375;-32
2021/03/09 10:45:29;;;;;;;18.07;11.53;;;;;;;34.53;42.03;100944.22;5046720;28;65956;-33
2021/03/09 10:48:01;;;;;;;33.28;11.52;;;;;;;34.53;42.28;100957.03;5038242;28;69959;-34
2021/03/09 10:50:31;;;;;;;;;;;;;;;34.39;42.09;100951.03;5035561;28;66118;-34
2021/03/09 10:53:02;;;;;;;27.40;10.23;;;;;;;34.50;41.98;100961.06;5041800;28;69223;-35
2021/03/09 10:55:32;;;;;;;16.23;9.93;;;;;;;34.46;41.75;100962.59;5038836;28;64837;-33
2021/03/09 10:58:04;;;;;;;19.52;9.90;;;;;;;34.40;42.34;100963.56;5038795;28;71155;-33
2021/03/09 11:00:34;;;;;;;20.13;10.23;;;;;;;34.38;42.61;100957.53;5049735;28;66396;-31
2021/03/09 11:03:04;;;;;;;34.20;9.88;;;;;;;34.37;42.66;100969.50;5038763;28;68917;-32
2021/03/09 11:05:34;;;;;;;18.85;9.80;;;;;;;34.30;42.67;100972.38;5043257;28;66457;-35
2021/03/09 11:08:04;;;;;;;11.27;9.95;;;;;;;34.28;42.25;100976.41;5055931;28;69774;-33
2021/03/09 11:10:33;;;;;;;22.38;10.07;;;;;;;34.26;42.19;100985.63;5053441;28;65928;-32
2021/03/09 11:13:03;;;;;;;21.52;9.55;;;;;;;34.24;41.95;100990.50;5045178;28;70491;-31
2021/03/09 11:15:34;;;;;;;106.17;11.73;;;;;;;34.18;43.16;100983.28;5047301;28;66528;-32
2021/03/09 11:18:04;;;;;;;13.90;9.57;;;;;;;34.15;42.09;100983.75;5048607;28;69086;-34
2021/03/09 11:20:35;;;;;;;14.90;9.18;;;;;;;34.16;42.14;100990.88;5049581;28;67418;-33
2021/03/09 11:23:06;;;;;;;20.83;10.43;;;;;;;34.13;42.22;100993.25;5048513;28;69181;-32
2021/03/09 11:25:37;;;;;;;17.40;9.70;;;;;;;34.13;42.48;100985.94;5052808;28;66220;-35
2021/03/09 11:28:06;;;;;;;19.65;10.38;;;;;;;34.29;42.54;100994.41;5054745;28;69112;-31
2021/03/09 11:30:36;;;;;;;20.08;10.75;;;;;;;34.41;42.30;100995.19;5051460;28;66161;-31
2021/03/09 11:33:06;;;;;;;30.20;9.63;;;;;;;34.47;42.01;101002.41;5047833;28;70035;-32
2021/03/09 11:35:36;;;;;;;13.32;9.23;;;;;;;34.54;42.07;101000.34;5043497;28;66654;-32
2021/03/09 11:38:05;;;;;;;28.60;8.85;;;;;;;34.49;42.73;101005.69;5053889;28;68582;-32
2021/03/09 11:40:35;;;;;;;20.77;9.80;;;;;;;34.31;42.54;101008.59;5055368;28;66029;-32
2021/03/09 11:43:05;;;;;;;27.48;10.18;;;;;;;34.10;41.83;101013.63;5055447;28;68978;-32